Madison, California
Current Conditions -  °F | °C
As of 12:15 PM on Wednesday 26 Nov 2014 (Local Time) from KEDU Reporting Station
Clear Clear  
Wind Chill: 61°   Ceiling: Unl
Heat Index: 61°   Visibility: 10mi
Dew Point: 46°   Wind: 3mph
Humidity: 59%   Direction: 10°N
Pressure: 30.29"   Gusts: NA
Location:  38.68°N, 121.97°W
Report Text: KEDU 262015Z AUTO 01003KT 10SM CLR 16/08 A3029 RMK AO1
Loading
Personal Weather Stations






























Interactive Weather Map New forecast layout! Learn more

10-Day Weather Forecast

Advertisements
Track Severe Weather on mobile